createdAt,value
2022-08-07T00:00:47.172Z,13.43
2022-08-07T00:03:52.088Z,11.57
2022-08-07T00:06:56.730Z,12.03
2022-08-07T00:10:25.455Z,10.17
2022-08-07T00:13:25.896Z,11.67
2022-08-07T00:16:28.610Z,10.17
2022-08-07T00:20:00.514Z,9.97
2022-08-07T00:22:53.192Z,11.77
2022-08-07T00:26:01.521Z,13.40
2022-08-07T00:29:03.456Z,10.20
2022-08-07T00:32:07.790Z,11.20
2022-08-07T00:35:10.007Z,9.83
2022-08-07T00:38:11.589Z,9.63
2022-08-07T00:41:15.293Z,10.27
2022-08-07T00:44:17.220Z,12.93
2022-08-07T00:48:08.187Z,11.77
2022-08-07T00:50:46.630Z,12.93
2022-08-07T00:53:55.317Z,10.00
2022-08-07T00:56:57.728Z,10.87
2022-08-07T00:59:59.884Z,9.93
2022-08-07T01:03:01.628Z,10.93
2022-08-07T01:06:04.051Z,12.30
2022-08-07T01:09:05.681Z,11.73
2022-08-07T01:12:29.140Z,11.07
2022-08-07T01:16:00.688Z,10.87
2022-08-07T01:18:54.133Z,12.60
2022-08-07T01:21:57.191Z,13.23
2022-08-07T01:25:05.115Z,11.43
2022-08-07T01:28:25.848Z,10.77
2022-08-07T01:31:41.784Z,11.27
2022-08-07T01:34:49.157Z,13.60
2022-08-07T01:37:51.654Z,12.10
2022-08-07T01:40:55.002Z,12.97
2022-08-07T01:43:58.836Z,11.40
2022-08-07T01:47:14.488Z,11.70
2022-08-07T01:50:29.214Z,12.43
2022-08-07T01:54:09.279Z,11.93
2022-08-07T01:57:08.294Z,12.53
2022-08-07T02:00:13.693Z,13.33
2022-08-07T02:03:26.395Z,11.67
2022-08-07T02:06:38.117Z,12.93
2022-08-07T02:09:52.876Z,11.33
2022-08-07T02:12:59.667Z,12.30
2022-08-07T02:16:08.387Z,12.83
2022-08-07T02:20:05.035Z,11.80
2022-08-07T02:22:41.367Z,13.97
2022-08-07T02:26:30.506Z,12.87
2022-08-07T02:29:13.700Z,13.13
2022-08-07T02:32:18.720Z,12.30
2022-08-07T02:36:29.539Z,13.93
2022-08-07T02:38:50.708Z,13.57
2022-08-07T02:41:56.461Z,13.53
2022-08-07T02:45:57.588Z,12.97
2022-08-07T02:48:25.799Z,11.07
2022-08-07T02:51:41.906Z,14.20
2022-08-07T02:54:52.212Z,13.20
2022-08-07T02:57:59.791Z,13.50
2022-08-07T03:01:03.144Z,12.07
2022-08-07T03:04:12.514Z,16.07
2022-08-07T03:07:16.289Z,12.13
2022-08-07T03:10:25.300Z,12.10
2022-08-07T03:13:27.763Z,14.07
2022-08-07T03:16:33.737Z,13.20
2022-08-07T03:19:36.980Z,13.53
2022-08-07T03:22:41.830Z,12.43
2022-08-07T03:25:58.096Z,13.93
2022-08-07T03:29:02.123Z,14.30
2022-08-07T03:32:08.309Z,13.20
2022-08-07T03:35:17.988Z,12.30
2022-08-07T03:38:29.920Z,11.77
2022-08-07T03:41:41.711Z,13.77
2022-08-07T03:44:53.252Z,12.30
2022-08-07T03:47:57.280Z,11.43
2022-08-07T03:51:02.056Z,11.63
2022-08-07T03:54:35.819Z,12.60
2022-08-07T03:58:17.978Z,12.47
2022-08-07T04:01:00.249Z,12.60
2022-08-07T04:04:05.633Z,11.43
2022-08-07T04:07:17.468Z,13.23
2022-08-07T04:10:22.104Z,15.37
2022-08-07T04:13:27.727Z,12.50
2022-08-07T04:16:32.270Z,14.53
2022-08-07T04:19:52.781Z,12.67
2022-08-07T04:23:01.963Z,11.63
2022-08-07T04:26:11.686Z,14.17
2022-08-07T04:29:14.301Z,12.50
2022-08-07T04:32:18.826Z,11.97
2022-08-07T04:35:37.406Z,11.63
2022-08-07T04:38:44.494Z,11.10
2022-08-07T04:41:50.349Z,12.47
2022-08-07T04:45:02.883Z,11.33
2022-08-07T04:48:13.062Z,11.20
2022-08-07T04:51:33.783Z,10.33
2022-08-07T04:54:54.439Z,10.80
2022-08-07T04:58:16.000Z,11.93
2022-08-07T05:01:30.189Z,11.93
2022-08-07T05:04:43.899Z,12.10
2022-08-07T05:08:02.277Z,11.93
2022-08-07T05:11:10.124Z,10.57
2022-08-07T05:14:53.262Z,10.87
2022-08-07T05:17:55.270Z,13.60
2022-08-07T05:20:59.497Z,13.60
2022-08-07T05:24:04.353Z,11.13
2022-08-07T05:28:01.874Z,12.40
2022-08-07T05:30:33.073Z,12.17
2022-08-07T05:33:38.722Z,10.33
2022-08-07T05:36:48.851Z,12.00
2022-08-07T05:40:18.903Z,12.97
2022-08-07T05:43:49.771Z,10.27
2022-08-07T05:46:44.632Z,12.23
2022-08-07T05:49:48.388Z,11.30
2022-08-07T05:52:52.909Z,11.80
2022-08-07T05:56:02.314Z,9.83
2022-08-07T05:59:06.233Z,10.03
2022-08-07T06:02:09.279Z,10.53
2022-08-07T06:05:15.763Z,14.43
2022-08-07T06:08:31.291Z,12.43
2022-08-07T06:11:34.595Z,8.80
2022-08-07T06:14:37.681Z,12.65
2022-08-07T06:17:41.324Z,8.60
2022-08-07T06:22:15.115Z,8.23
2022-08-07T06:24:50.746Z,11.25
2022-08-07T06:27:59.579Z,20.38
2022-08-07T06:31:01.516Z,8.60
2022-08-07T06:34:05.575Z,9.48
2022-08-07T06:37:07.172Z,9.82
2022-08-07T06:40:20.024Z,8.40
2022-08-07T06:43:26.690Z,9.18
2022-08-07T06:46:53.172Z,8.90
2022-08-07T06:50:03.986Z,9.50
2022-08-07T06:53:18.651Z,10.50
2022-08-07T06:56:48.442Z,11.48
2022-08-07T07:00:12.467Z,10.48
2022-08-07T07:03:26.320Z,10.73
2022-08-07T07:07:00.385Z,9.30
2022-08-07T07:10:02.983Z,10.20
2022-08-07T07:13:14.573Z,9.77
2022-08-07T07:16:19.800Z,11.73
2022-08-07T07:19:55.479Z,10.75
2022-08-07T07:24:05.320Z,9.95
2022-08-07T07:26:32.017Z,9.80
2022-08-07T07:29:56.956Z,14.48
2022-08-07T07:32:55.067Z,12.00
2022-08-07T07:36:04.900Z,11.25
2022-08-07T07:39:07.864Z,8.75
2022-08-07T07:42:13.950Z,6.93
2022-08-07T07:45:24.503Z,8.10
2022-08-07T07:48:43.010Z,7.93
2022-08-07T07:51:58.270Z,9.13
2022-08-07T07:55:01.763Z,7.15
2022-08-07T07:58:05.924Z,6.63
2022-08-07T08:02:03.563Z,6.40
2022-08-07T08:04:30.868Z,5.90
2022-08-07T08:07:35.705Z,5.88
2022-08-07T08:10:44.825Z,6.78
2022-08-07T08:13:53.827Z,5.38
2022-08-07T08:17:01.186Z,9.18
2022-08-07T08:20:23.892Z,9.02
2022-08-07T08:23:49.888Z,7.10
2022-08-07T08:27:05.947Z,6.18
2022-08-07T08:30:14.282Z,6.25
2022-08-07T08:33:20.511Z,6.05
2022-08-07T08:36:29.559Z,6.72
2022-08-07T08:39:39.624Z,6.57
2022-08-07T08:43:00.457Z,6.80
2022-08-07T08:46:06.556Z,6.18
2022-08-07T08:49:33.165Z,5.72
2022-08-07T08:52:40.889Z,7.47
2022-08-07T08:56:04.938Z,6.53
2022-08-07T08:59:25.518Z,6.43
2022-08-07T09:02:40.487Z,5.65
2022-08-07T09:05:48.045Z,9.32
2022-08-07T09:09:00.185Z,5.80
2022-08-07T09:12:30.174Z,6.28
2022-08-07T09:16:24.060Z,6.32
2022-08-07T09:18:59.033Z,7.28
2022-08-07T09:22:23.133Z,7.40
2022-08-07T09:25:53.413Z,8.30
2022-08-07T09:30:05.064Z,7.40
2022-08-07T09:32:26.412Z,7.72
2022-08-07T09:36:04.387Z,8.15
2022-08-07T09:39:27.505Z,7.70
2022-08-07T09:42:54.403Z,8.70
2022-08-07T09:47:23.983Z,8.35
2022-08-07T09:50:02.026Z,7.78
2022-08-07T09:53:07.522Z,8.32
2022-08-07T09:56:19.663Z,9.43
2022-08-07T09:59:46.248Z,9.55
2022-08-07T10:04:05.432Z,10.02
2022-08-07T10:06:55.892Z,9.55
2022-08-07T10:10:03.350Z,12.05
2022-08-07T10:13:55.192Z,18.83
2022-08-07T10:16:45.323Z,17.50
2022-08-07T10:19:47.513Z,10.90
2022-08-07T10:23:07.800Z,10.95
2022-08-07T10:26:30.735Z,10.88
2022-08-07T10:29:45.637Z,12.30
2022-08-07T10:32:54.238Z,11.63
2022-08-07T10:36:17.169Z,12.50
2022-08-07T10:39:41.386Z,14.43
2022-08-07T10:42:54.148Z,13.90
2022-08-07T10:45:58.745Z,13.97
2022-08-07T10:49:13.719Z,12.80
2022-08-07T10:52:19.096Z,12.13
2022-08-07T10:55:36.901Z,12.30
2022-08-07T10:58:47.958Z,12.05
2022-08-07T11:02:27.667Z,11.80
2022-08-07T11:05:54.756Z,11.20
2022-08-07T11:09:03.864Z,13.18
2022-08-07T11:12:31.811Z,13.05
2022-08-07T11:15:39.677Z,12.35
2022-08-07T11:18:41.441Z,12.95
2022-08-07T11:21:46.736Z,14.23
2022-08-07T11:25:00.260Z,12.70
2022-08-07T11:28:17.488Z,12.27
2022-08-07T11:31:24.921Z,12.30
2022-08-07T11:34:40.868Z,14.30
2022-08-07T11:37:57.823Z,16.40
2022-08-07T11:41:22.283Z,14.43
2022-08-07T11:44:37.257Z,13.85
2022-08-07T11:47:58.961Z,13.23
2022-08-07T11:51:41.644Z,12.95
2022-08-07T11:54:55.833Z,16.92
2022-08-07T11:58:16.673Z,13.48
2022-08-07T12:01:19.927Z,13.75
2022-08-07T12:04:46.021Z,16.90
2022-08-07T12:07:53.801Z,14.88
2022-08-07T12:11:20.778Z,14.02
2022-08-07T12:14:29.740Z,16.38
2022-08-07T12:17:59.782Z,14.20
2022-08-07T12:21:14.952Z,17.88
2022-08-07T12:24:37.834Z,16.98
2022-08-07T12:28:08.872Z,15.05
2022-08-07T12:31:09.285Z,16.27
2022-08-07T12:34:11.610Z,14.88
2022-08-07T12:37:17.035Z,14.80
2022-08-07T12:44:02.703Z,13.98
2022-08-07T12:47:10.990Z,18.48
2022-08-07T12:50:39.564Z,18.30
2022-08-07T12:54:03.155Z,50.00
2022-08-07T12:57:19.441Z,28.00
2022-08-07T13:00:32.793Z,15.67
2022-08-07T13:04:04.666Z,21.60
2022-08-07T13:08:11.975Z,16.53
2022-08-07T13:11:31.333Z,16.17
2022-08-07T13:15:03.467Z,13.67
2022-08-07T13:18:26.089Z,15.87
2022-08-07T13:21:51.072Z,22.90
2022-08-07T13:24:55.308Z,17.50
2022-08-07T13:28:10.882Z,19.17
2022-08-07T13:31:32.071Z,17.90
2022-08-07T13:34:48.568Z,20.60
2022-08-07T13:38:11.141Z,19.23
2022-08-07T13:41:13.982Z,19.37
2022-08-07T13:44:26.162Z,17.30
2022-08-07T13:47:29.266Z,18.83
2022-08-07T13:51:02.056Z,13.77
2022-08-07T13:54:09.117Z,17.47
2022-08-07T13:57:25.182Z,16.93
2022-08-07T14:00:35.809Z,17.43
2022-08-07T14:04:05.411Z,13.80
2022-08-07T14:07:11.549Z,17.00
2022-08-07T14:10:21.727Z,16.97
2022-08-07T14:13:33.845Z,13.17
2022-08-07T14:16:39.073Z,13.00
2022-08-07T14:20:42.516Z,12.10
2022-08-07T14:23:31.359Z,20.40
2022-08-07T14:26:50.287Z,14.37
2022-08-07T14:30:05.251Z,28.30
2022-08-07T14:33:14.892Z,16.20
2022-08-07T14:36:17.329Z,20.37
2022-08-07T14:40:17.213Z,23.47
2022-08-07T14:43:00.979Z,14.90
2022-08-07T14:46:04.329Z,22.87
2022-08-07T14:52:33.411Z,11.80
2022-08-07T14:55:47.925Z,10.77
2022-08-07T14:59:03.163Z,10.50
2022-08-07T15:02:31.794Z,10.90
2022-08-07T15:05:37.621Z,12.00
2022-08-07T15:09:02.058Z,11.83
2022-08-07T15:12:30.569Z,13.37
2022-08-07T15:15:43.912Z,11.40
2022-08-07T15:18:55.942Z,10.40
2022-08-07T15:22:05.715Z,11.83
2022-08-07T15:25:20.422Z,17.87
2022-08-07T15:28:35.039Z,17.37
2022-08-07T15:32:01.958Z,14.03
2022-08-07T15:35:04.018Z,15.83
2022-08-07T15:42:43.668Z,14.57
2022-08-07T15:44:52.394Z,15.93
2022-08-07T15:48:02.059Z,15.47
2022-08-07T15:51:10.055Z,15.50
2022-08-07T15:54:15.142Z,14.97
2022-08-07T15:57:27.924Z,15.10
2022-08-07T16:00:42.900Z,15.83
2022-08-07T16:03:55.696Z,16.00
2022-08-07T16:07:00.829Z,17.30
2022-08-07T16:10:14.766Z,16.87
2022-08-07T16:13:57.874Z,13.70
2022-08-07T16:16:57.176Z,13.90
2022-08-07T16:20:08.585Z,17.87
2022-08-07T16:23:53.542Z,12.90
2022-08-07T16:27:05.979Z,14.70
2022-08-07T16:30:31.160Z,13.70
2022-08-07T16:34:03.017Z,14.33
2022-08-07T16:38:06.207Z,16.23
2022-08-07T16:40:57.166Z,13.60
2022-08-07T16:44:46.046Z,13.53
2022-08-07T16:47:51.179Z,14.97
2022-08-07T16:51:51.812Z,13.40
2022-08-07T16:54:55.067Z,14.87
2022-08-07T16:58:01.863Z,13.13
2022-08-07T17:01:18.152Z,12.87
2022-08-07T17:04:37.038Z,13.40
2022-08-07T17:07:58.184Z,15.67
2022-08-07T17:11:04.697Z,16.13
2022-08-07T17:14:19.107Z,15.37
2022-08-07T17:17:43.899Z,14.67
2022-08-07T17:20:49.700Z,16.20
2022-08-07T17:24:03.143Z,15.47
2022-08-07T17:27:20.147Z,15.40
2022-08-07T17:30:27.301Z,16.47
2022-08-07T17:34:10.286Z,18.00
2022-08-07T17:37:09.677Z,15.70
2022-08-07T17:40:36.622Z,14.93
2022-08-07T17:44:01.698Z,14.47
2022-08-07T17:47:38.485Z,15.33
2022-08-07T17:51:01.695Z,16.13
2022-08-07T17:54:06.037Z,16.10
2022-08-07T17:57:20.560Z,15.43
2022-08-07T18:00:33.077Z,16.63
2022-08-07T18:04:04.673Z,18.57
2022-08-07T18:07:21.080Z,16.37
2022-08-07T18:10:33.306Z,15.73
2022-08-07T18:13:40.745Z,17.93
2022-08-07T18:16:58.308Z,16.60
2022-08-07T18:21:07.960Z,15.73
2022-08-07T18:23:57.203Z,16.83
2022-08-07T18:27:09.109Z,18.50
2022-08-07T18:30:32.282Z,20.40
2022-08-07T18:33:55.238Z,15.53
2022-08-07T18:38:58.724Z,15.50
2022-08-07T18:41:05.125Z,15.57
2022-08-07T18:44:28.929Z,17.40
2022-08-07T18:47:44.369Z,19.53
2022-08-07T18:50:49.850Z,16.30
2022-08-07T18:54:30.605Z,18.47
2022-08-07T18:57:41.028Z,15.13
2022-08-07T19:00:54.247Z,18.27
2022-08-07T19:04:00.329Z,17.33
2022-08-07T19:07:08.389Z,16.77
2022-08-07T19:10:18.662Z,15.30
2022-08-07T19:13:23.050Z,16.70
2022-08-07T19:17:07.724Z,15.13
2022-08-07T19:20:29.635Z,16.77
2022-08-07T19:23:57.999Z,15.50
2022-08-07T19:28:58.336Z,15.63
2022-08-07T19:31:00.298Z,15.13
2022-08-07T19:33:57.989Z,17.10
2022-08-07T19:37:10.336Z,15.47
2022-08-07T19:40:31.772Z,15.80
2022-08-07T19:43:48.833Z,15.60
2022-08-07T19:46:55.524Z,16.77
2022-08-07T19:50:02.795Z,14.90
2022-08-07T19:54:44.118Z,15.40
2022-08-07T19:58:00.840Z,14.40
2022-08-07T19:59:59.726Z,15.57
2022-08-07T20:03:01.356Z,14.63
2022-08-07T20:06:04.506Z,15.13
2022-08-07T20:09:07.480Z,20.10
2022-08-07T20:12:34.389Z,15.43
2022-08-07T20:15:37.421Z,15.93
2022-08-07T20:18:40.689Z,16.97
2022-08-07T20:21:46.946Z,16.33
2022-08-07T20:24:54.527Z,16.33
2022-08-07T20:27:58.792Z,15.20
2022-08-07T20:31:21.089Z,15.63
2022-08-07T20:34:49.502Z,14.90
2022-08-07T20:37:59.328Z,16.20
2022-08-07T20:41:03.867Z,17.23
2022-08-07T20:44:12.606Z,19.37
2022-08-07T20:47:17.930Z,20.93
2022-08-07T20:50:29.093Z,17.00
2022-08-07T20:54:03.370Z,16.17
2022-08-07T20:56:56.632Z,17.30
2022-08-07T21:00:09.248Z,17.13
2022-08-07T21:03:16.289Z,20.27
2022-08-07T21:06:25.807Z,15.03
2022-08-07T21:09:30.054Z,15.93
2022-08-07T21:12:52.985Z,17.90
2022-08-07T21:16:00.590Z,17.00
2022-08-07T21:19:02.917Z,17.20
2022-08-07T21:22:05.524Z,17.63
2022-08-07T21:25:17.092Z,18.00
2022-08-07T21:28:50.316Z,17.20
2022-08-07T21:32:46.840Z,15.00
2022-08-07T21:35:34.923Z,16.67
2022-08-07T21:39:46.505Z,15.63
2022-08-07T21:42:48.632Z,15.70
2022-08-07T21:46:24.574Z,16.53
2022-08-07T21:49:40.755Z,18.30
2022-08-07T21:53:08.362Z,15.20
2022-08-07T21:56:39.834Z,14.83
2022-08-07T22:00:05.083Z,15.27
2022-08-07T22:03:10.914Z,16.77
2022-08-07T22:06:30.323Z,14.80
2022-08-07T22:09:55.479Z,14.93
2022-08-07T22:13:02.580Z,17.90
2022-08-07T22:16:43.137Z,14.93
2022-08-07T22:19:39.501Z,16.80
2022-08-07T22:22:45.788Z,14.23
2022-08-07T22:26:13.352Z,17.57
2022-08-07T22:29:47.387Z,19.73
2022-08-07T22:32:51.277Z,17.30
2022-08-07T22:36:02.110Z,16.67
2022-08-07T22:39:26.103Z,15.20
2022-08-07T22:42:31.812Z,16.33
2022-08-07T22:46:40.855Z,14.47
2022-08-07T22:49:11.159Z,15.37
2022-08-07T22:52:36.979Z,17.07
2022-08-07T22:55:52.488Z,14.63
2022-08-07T22:58:57.263Z,15.37
2022-08-07T23:02:31.901Z,16.67
2022-08-07T23:06:07.291Z,15.33
2022-08-07T23:10:04.562Z,16.43
2022-08-07T23:13:04.924Z,16.77
2022-08-07T23:16:46.877Z,14.70
2022-08-07T23:20:21.427Z,18.00
2022-08-07T23:24:05.886Z,18.87
2022-08-07T23:27:33.659Z,20.97
2022-08-07T23:30:43.293Z,17.13
2022-08-07T23:34:34.963Z,17.83
2022-08-07T23:37:34.770Z,15.37
2022-08-07T23:40:49.307Z,17.23
2022-08-07T23:44:11.482Z,16.43
2022-08-07T23:47:29.683Z,14.33
2022-08-07T23:50:34.672Z,17.03
2022-08-07T23:53:56.269Z,15.20
2022-08-07T23:57:03.882Z,16.17
